Terminal Aerodrome Forecast
Issued by NWS

Home | Current Version | Previous Version | Text Only | Print | Product List | Glossary Off
Versions: 1 2 3 4 5 6 7 8 9 10 11 12 13 14 15 16 17 18 19 20 21 22 23 24 25

000
FTUS43 KABR 241200 AAA
TAFMBG
TAF AMD
KMBG 241214Z 2412/2512 33014KT P6SM SCT015
     FM241400 33014G25KT P6SM SCT250
     FM250000 VRB05KT P6SM BKN250=

USA.gov is the U.S. government's official web portal to all federal, state and local government web resources and services.